createdAt,value
2017-10-19T00:00:10.702Z,0
2017-10-19T00:01:10.703Z,0
2017-10-19T00:02:11.406Z,0
2017-10-19T00:03:11.073Z,0
2017-10-19T00:04:10.768Z,0
2017-10-19T00:05:10.902Z,0
2017-10-19T00:06:10.822Z,0
2017-10-19T00:07:10.836Z,0
2017-10-19T00:08:10.858Z,0
2017-10-19T00:09:11.273Z,0
2017-10-19T00:10:10.905Z,0
2017-10-19T00:11:10.931Z,0
2017-10-19T00:12:10.960Z,0
2017-10-19T00:13:10.979Z,0
2017-10-19T00:14:10.993Z,0
2017-10-19T00:15:11.009Z,0
2017-10-19T00:16:11.183Z,0
2017-10-19T00:17:11.049Z,0
2017-10-19T00:18:11.446Z,0
2017-10-19T00:19:11.478Z,0
2017-10-19T00:20:11.189Z,0
2017-10-19T00:21:11.143Z,0
2017-10-19T00:22:11.191Z,0
2017-10-19T00:23:11.204Z,0
2017-10-19T00:24:11.525Z,0
2017-10-19T00:25:11.222Z,0
2017-10-19T00:26:11.258Z,0
2017-10-19T00:27:11.418Z,0
2017-10-19T00:28:11.293Z,0
2017-10-19T00:29:11.328Z,0
2017-10-19T00:30:11.731Z,0
2017-10-19T00:31:11.349Z,0
2017-10-19T00:32:11.579Z,0
2017-10-19T00:33:11.397Z,0
2017-10-19T00:34:11.746Z,0
2017-10-19T00:35:11.788Z,0
2017-10-19T00:36:11.789Z,0
2017-10-19T00:37:11.536Z,0
2017-10-19T00:38:12.182Z,0
2017-10-19T00:39:11.860Z,0
2017-10-19T00:40:11.551Z,0
2017-10-19T00:41:11.578Z,0
2017-10-19T00:42:11.599Z,0
2017-10-19T00:43:11.620Z,0
2017-10-19T00:44:11.632Z,0
2017-10-19T00:45:11.657Z,0
2017-10-19T00:46:12.001Z,0
2017-10-19T00:47:12.022Z,0
2017-10-19T00:48:11.719Z,0
2017-10-19T00:49:11.741Z,0
2017-10-19T00:50:11.969Z,0
2017-10-19T00:51:11.799Z,0
2017-10-19T00:52:11.831Z,0
2017-10-19T00:53:12.654Z,0
2017-10-19T00:54:11.903Z,0
2017-10-19T00:55:11.875Z,0
2017-10-19T00:56:11.893Z,0
2017-10-19T00:57:11.918Z,0
2017-10-19T00:58:11.942Z,0
2017-10-19T00:59:11.975Z,0
2017-10-19T01:00:11.988Z,0
2017-10-19T01:01:12.343Z,0
2017-10-19T01:02:12.031Z,0
2017-10-19T01:03:12.400Z,0
2017-10-19T01:04:12.749Z,0
2017-10-19T01:05:12.224Z,0
2017-10-19T01:06:12.451Z,0
2017-10-19T01:07:12.137Z,0
2017-10-19T01:08:12.160Z,0
2017-10-19T01:09:12.328Z,0
2017-10-19T01:10:12.912Z,0
2017-10-19T01:11:12.216Z,0
2017-10-19T01:12:12.239Z,0
2017-10-19T01:13:12.260Z,0
2017-10-19T01:14:12.311Z,0
2017-10-19T01:15:12.450Z,0
2017-10-19T01:16:12.327Z,0
2017-10-19T01:17:12.350Z,0
2017-10-19T01:18:12.369Z,0
2017-10-19T01:19:12.735Z,0
2017-10-19T01:20:12.926Z,0
2017-10-19T01:21:12.431Z,0
2017-10-19T01:22:12.466Z,0
2017-10-19T01:23:12.476Z,0
2017-10-19T01:24:12.501Z,0
2017-10-19T01:25:12.870Z,0
2017-10-19T01:26:12.658Z,0
2017-10-19T01:27:12.564Z,0
2017-10-19T01:28:12.634Z,0
2017-10-19T01:29:12.939Z,0
2017-10-19T01:30:12.690Z,0
2017-10-19T01:31:12.665Z,0
2017-10-19T01:32:14.585Z,0
2017-10-19T01:33:12.697Z,0
2017-10-19T01:34:12.706Z,0
2017-10-19T01:35:12.730Z,0
2017-10-19T01:36:12.759Z,0
2017-10-19T01:37:12.911Z,0
2017-10-19T01:38:12.801Z,0
2017-10-19T01:39:12.823Z,0
2017-10-19T01:40:12.835Z,0
2017-10-19T01:41:12.974Z,0
2017-10-19T01:42:12.879Z,0
2017-10-19T01:43:12.905Z,0
2017-10-19T01:44:13.313Z,0
2017-10-19T01:45:12.941Z,0
2017-10-19T01:46:12.969Z,0
2017-10-19T01:47:12.999Z,0
2017-10-19T01:48:13.148Z,0
2017-10-19T01:49:13.040Z,0
2017-10-19T01:50:13.080Z,0
2017-10-19T01:51:13.076Z,0
2017-10-19T01:52:13.872Z,0
2017-10-19T01:53:13.116Z,0
2017-10-19T01:54:13.169Z,0
2017-10-19T01:55:13.486Z,0
2017-10-19T01:56:13.178Z,0
2017-10-19T01:57:13.202Z,0
2017-10-19T01:58:13.222Z,0
2017-10-19T01:59:13.772Z,0
2017-10-19T02:00:13.263Z,0
2017-10-19T02:01:13.288Z,0
2017-10-19T02:02:13.500Z,0
2017-10-19T02:03:13.332Z,0
2017-10-19T02:04:13.349Z,0
2017-10-19T02:05:13.372Z,0
2017-10-19T02:06:13.382Z,0
2017-10-19T02:07:13.743Z,0
2017-10-19T02:08:13.433Z,0
2017-10-19T02:09:13.452Z,0
2017-10-19T02:10:13.708Z,0
2017-10-19T02:11:13.492Z,0
2017-10-19T02:12:13.842Z,0
2017-10-19T02:13:13.536Z,0
2017-10-19T02:14:13.950Z,0
2017-10-19T02:15:13.585Z,0
2017-10-19T02:16:13.937Z,0
2017-10-19T02:17:13.618Z,0
2017-10-19T02:18:13.644Z,0
2017-10-19T02:19:13.768Z,0
2017-10-19T02:20:13.682Z,0
2017-10-19T02:21:13.751Z,0
2017-10-19T02:22:13.725Z,0
2017-10-19T02:23:13.752Z,0
2017-10-19T02:24:13.770Z,0
2017-10-19T02:25:13.794Z,0
2017-10-19T02:26:13.809Z,0
2017-10-19T02:27:13.832Z,0
2017-10-19T02:28:13.858Z,0
2017-10-19T02:29:13.871Z,0
2017-10-19T02:30:14.228Z,0
2017-10-19T02:31:13.921Z,0
2017-10-19T02:32:14.031Z,0
2017-10-19T02:33:13.955Z,0
2017-10-19T02:34:13.979Z,0
2017-10-19T02:35:14.002Z,0
2017-10-19T02:36:14.031Z,0
2017-10-19T02:37:14.042Z,0
2017-10-19T02:38:14.081Z,0
2017-10-19T02:39:14.083Z,0
2017-10-19T02:40:14.457Z,0
2017-10-19T02:41:14.453Z,0
2017-10-19T02:42:14.163Z,0
2017-10-19T02:43:14.189Z,0
2017-10-19T02:44:14.192Z,0
2017-10-19T02:45:14.260Z,0
2017-10-19T02:46:14.235Z,0
2017-10-19T02:47:14.264Z,0
2017-10-19T02:48:14.286Z,0
2017-10-19T02:49:14.295Z,0
2017-10-19T02:50:14.379Z,0
2017-10-19T02:51:14.334Z,0
2017-10-19T02:52:14.355Z,0
2017-10-19T02:53:14.702Z,0
2017-10-19T02:54:14.405Z,0
2017-10-19T02:55:15.224Z,0
2017-10-19T02:56:14.519Z,0
2017-10-19T02:57:14.462Z,0
2017-10-19T02:58:14.496Z,0
2017-10-19T02:59:14.517Z,0
2017-10-19T03:00:14.565Z,0
2017-10-19T03:01:14.881Z,0
2017-10-19T03:02:14.572Z,0
2017-10-19T03:03:14.592Z,0
2017-10-19T03:04:14.610Z,0
2017-10-19T03:05:14.696Z,0
2017-10-19T03:06:15.312Z,0
2017-10-19T03:07:14.671Z,0
2017-10-19T03:08:14.690Z,0
2017-10-19T03:09:14.726Z,0
2017-10-19T03:10:14.741Z,0
2017-10-19T03:11:14.765Z,0
2017-10-19T03:12:15.098Z,0
2017-10-19T03:13:14.795Z,0
2017-10-19T03:14:14.818Z,0
2017-10-19T03:15:14.840Z,0
2017-10-19T03:16:14.875Z,0
2017-10-19T03:17:14.887Z,0
2017-10-19T03:18:15.231Z,0
2017-10-19T03:19:15.247Z,0
2017-10-19T03:20:15.014Z,0
2017-10-19T03:21:14.959Z,0
2017-10-19T03:22:14.988Z,0
2017-10-19T03:23:15.007Z,0
2017-10-19T03:24:15.019Z,0
2017-10-19T03:25:15.056Z,0
2017-10-19T03:26:15.078Z,0
2017-10-19T03:27:15.085Z,0
2017-10-19T03:28:15.121Z,0
2017-10-19T03:29:15.137Z,0
2017-10-19T03:30:15.154Z,0
2017-10-19T03:31:15.174Z,0
2017-10-19T03:32:15.196Z,0
2017-10-19T03:33:15.221Z,0
2017-10-19T03:34:15.236Z,0
2017-10-19T03:35:15.248Z,0
2017-10-19T03:36:15.275Z,0
2017-10-19T03:37:15.293Z,0
2017-10-19T03:38:15.337Z,0
2017-10-19T03:39:15.720Z,0
2017-10-19T03:40:15.499Z,0
2017-10-19T03:41:16.084Z,0
2017-10-19T03:42:15.403Z,0
2017-10-19T03:43:15.430Z,0
2017-10-19T03:44:15.437Z,0
2017-10-19T03:45:16.126Z,0
2017-10-19T03:46:15.816Z,0
2017-10-19T03:47:15.497Z,0
2017-10-19T03:48:15.536Z,0
2017-10-19T03:49:15.553Z,0
2017-10-19T03:50:15.680Z,0
2017-10-19T03:51:15.584Z,0
2017-10-19T03:52:15.629Z,0
2017-10-19T03:53:15.637Z,0
2017-10-19T03:54:15.973Z,0
2017-10-19T03:55:15.663Z,0
2017-10-19T03:56:15.690Z,0
2017-10-19T03:57:15.766Z,0
2017-10-19T03:58:15.725Z,0
2017-10-19T03:59:15.758Z,0
2017-10-19T04:00:15.767Z,0
2017-10-19T04:01:15.787Z,0
2017-10-19T04:02:15.812Z,0
2017-10-19T04:03:16.160Z,0
2017-10-19T04:04:15.860Z,0
2017-10-19T04:05:15.872Z,0
2017-10-19T04:06:15.901Z,0
2017-10-19T04:07:16.272Z,0
2017-10-19T04:08:15.932Z,0
2017-10-19T04:09:15.958Z,0
2017-10-19T04:10:16.003Z,0
2017-10-19T04:11:15.997Z,0
2017-10-19T04:12:16.422Z,0
2017-10-19T04:13:16.715Z,0
2017-10-19T04:14:16.089Z,0
2017-10-19T04:15:16.074Z,0
2017-10-19T04:16:16.442Z,0
2017-10-19T04:17:16.118Z,0
2017-10-19T04:18:16.137Z,0
2017-10-19T04:19:16.172Z,0
2017-10-19T04:20:16.622Z,0
2017-10-19T04:21:16.209Z,0
2017-10-19T04:22:16.228Z,0
2017-10-19T04:23:16.244Z,0
2017-10-19T04:24:16.265Z,0
2017-10-19T04:25:16.417Z,0
2017-10-19T04:26:16.639Z,0
2017-10-19T04:27:16.652Z,0
2017-10-19T04:28:16.675Z,0
2017-10-19T04:29:16.372Z,0
2017-10-19T04:30:16.437Z,0
2017-10-19T04:31:16.518Z,0
2017-10-19T04:32:16.443Z,0
2017-10-19T04:33:16.452Z,0
2017-10-19T04:34:16.478Z,0
2017-10-19T04:35:16.489Z,0
2017-10-19T04:36:16.518Z,0
2017-10-19T04:37:16.898Z,0
2017-10-19T04:38:16.553Z,0
2017-10-19T04:39:16.578Z,0
2017-10-19T04:40:16.600Z,0
2017-10-19T04:41:16.642Z,0
2017-10-19T04:42:16.650Z,0
2017-10-19T04:43:16.662Z,0
2017-10-19T04:44:16.673Z,0
2017-10-19T04:45:16.694Z,0
2017-10-19T04:46:16.722Z,0
2017-10-19T04:47:16.747Z,0
2017-10-19T04:48:17.086Z,0
2017-10-19T04:49:16.829Z,0
2017-10-19T04:50:16.808Z,0
2017-10-19T04:51:16.830Z,0
2017-10-19T04:52:16.843Z,0
2017-10-19T04:53:16.882Z,0
2017-10-19T04:54:17.211Z,0
2017-10-19T04:55:16.906Z,0
2017-10-19T04:56:16.925Z,0
2017-10-19T04:57:16.949Z,0
2017-10-19T04:58:16.968Z,0
2017-10-19T04:59:16.987Z,0
2017-10-19T05:00:17.028Z,0
2017-10-19T05:01:17.684Z,0
2017-10-19T05:02:17.056Z,0
2017-10-19T05:03:17.065Z,0
2017-10-19T05:04:17.142Z,0
2017-10-19T05:05:17.131Z,0
2017-10-19T05:06:17.449Z,0
2017-10-19T05:07:17.153Z,0
2017-10-19T05:08:17.183Z,0
2017-10-19T05:09:17.196Z,0
2017-10-19T05:10:17.235Z,0
2017-10-19T05:11:17.601Z,0
2017-10-19T05:12:17.260Z,0
2017-10-19T05:13:17.281Z,0
2017-10-19T05:14:17.295Z,0
2017-10-19T05:15:17.322Z,0
2017-10-19T05:16:17.338Z,0
2017-10-19T05:17:17.373Z,0
2017-10-19T05:18:17.379Z,0
2017-10-19T05:19:17.406Z,0
2017-10-19T05:20:17.442Z,0
2017-10-19T05:21:17.495Z,0
2017-10-19T05:22:17.465Z,0
2017-10-19T05:23:17.497Z,0
2017-10-19T05:24:17.847Z,0
2017-10-19T05:25:17.526Z,0
2017-10-19T05:26:17.555Z,0
2017-10-19T05:27:17.566Z,0
2017-10-19T05:28:17.603Z,0
2017-10-19T05:29:17.609Z,0
2017-10-19T05:30:17.626Z,0
2017-10-19T05:31:17.659Z,0
2017-10-19T05:32:17.673Z,0
2017-10-19T05:33:17.689Z,0
2017-10-19T05:34:17.776Z,5
2017-10-19T05:35:18.062Z,5
2017-10-19T05:36:17.802Z,5
2017-10-19T05:37:18.102Z,5
2017-10-19T05:38:17.796Z,5
2017-10-19T05:39:17.830Z,5
2017-10-19T05:40:17.834Z,5
2017-10-19T05:41:18.183Z,10
2017-10-19T05:42:17.890Z,10
2017-10-19T05:43:17.892Z,10
2017-10-19T05:44:17.924Z,10
2017-10-19T05:45:17.969Z,10
2017-10-19T05:46:17.964Z,10
2017-10-19T05:47:17.984Z,15
2017-10-19T05:48:18.017Z,15
2017-10-19T05:49:18.024Z,15
2017-10-19T05:50:18.039Z,15
2017-10-19T05:51:18.068Z,20
2017-10-19T05:52:18.081Z,20
2017-10-19T05:53:18.103Z,20
2017-10-19T05:54:18.124Z,20
2017-10-19T05:55:18.143Z,25
2017-10-19T05:56:18.167Z,25
2017-10-19T05:57:18.512Z,25
2017-10-19T05:58:18.228Z,25
2017-10-19T05:59:18.227Z,30
2017-10-19T06:00:18.255Z,30
2017-10-19T06:01:18.267Z,30
2017-10-19T06:02:18.288Z,30
2017-10-19T06:03:18.639Z,35
2017-10-19T06:04:18.348Z,35
2017-10-19T06:05:18.348Z,35
2017-10-19T06:06:18.375Z,35
2017-10-19T06:07:18.727Z,40
2017-10-19T06:08:18.747Z,40
2017-10-19T06:09:18.800Z,40
2017-10-19T06:10:18.472Z,40
2017-10-19T06:11:18.477Z,45
2017-10-19T06:12:18.821Z,45
2017-10-19T06:13:18.531Z,45
2017-10-19T06:14:18.531Z,45
2017-10-19T06:15:18.552Z,50
2017-10-19T06:16:18.673Z,50
2017-10-19T06:17:18.923Z,50
2017-10-19T06:18:18.619Z,55
2017-10-19T06:19:18.631Z,55
2017-10-19T06:20:19.014Z,55
2017-10-19T06:21:18.675Z,55
2017-10-19T06:22:19.024Z,60
2017-10-19T06:23:18.717Z,60
2017-10-19T06:24:18.784Z,60
2017-10-19T06:25:18.795Z,65
2017-10-19T06:26:18.775Z,65
2017-10-19T06:27:18.797Z,65
2017-10-19T06:28:19.148Z,65
2017-10-19T06:29:18.844Z,70
2017-10-19T06:30:19.220Z,70
2017-10-19T06:31:18.880Z,70
2017-10-19T06:32:18.919Z,75
2017-10-19T06:33:18.927Z,75
2017-10-19T06:34:18.937Z,75
2017-10-19T06:35:18.968Z,75
2017-10-19T06:36:18.980Z,80
2017-10-19T06:37:19.013Z,80
2017-10-19T06:38:19.030Z,80
2017-10-19T06:39:19.110Z,85
2017-10-19T06:40:19.078Z,85
2017-10-19T06:41:19.094Z,85
2017-10-19T06:42:19.132Z,90
2017-10-19T06:43:19.125Z,90
2017-10-19T06:44:19.150Z,90
2017-10-19T06:45:19.173Z,95
2017-10-19T06:46:19.200Z,95
2017-10-19T06:47:19.221Z,95
2017-10-19T06:48:19.232Z,100
2017-10-19T06:49:19.253Z,100
2017-10-19T06:50:19.283Z,100
2017-10-19T06:51:19.295Z,105
2017-10-19T06:52:19.331Z,105
2017-10-19T06:53:19.340Z,105
2017-10-19T06:54:19.414Z,110
2017-10-19T06:55:19.701Z,110
2017-10-19T06:56:19.397Z,110
2017-10-19T06:57:19.437Z,115
2017-10-19T06:58:19.464Z,115
2017-10-19T06:59:19.470Z,110
2017-10-19T07:00:19.487Z,115
2017-10-19T07:01:19.516Z,115
2017-10-19T07:02:19.528Z,115
2017-10-19T07:03:19.555Z,115
2017-10-19T07:04:19.594Z,120
2017-10-19T07:05:19.598Z,120
2017-10-19T07:06:19.611Z,120
2017-10-19T07:07:19.635Z,120
2017-10-19T07:08:19.993Z,125
2017-10-19T07:09:19.998Z,125
2017-10-19T07:10:19.749Z,125
2017-10-19T07:11:20.048Z,130
2017-10-19T07:12:19.741Z,130
2017-10-19T07:13:19.769Z,130
2017-10-19T07:14:19.798Z,135
2017-10-19T07:15:19.813Z,135
2017-10-19T07:16:19.840Z,135
2017-10-19T07:17:20.196Z,135
2017-10-19T07:18:19.882Z,140
2017-10-19T07:19:19.893Z,140
2017-10-19T07:20:19.932Z,140
2017-10-19T07:21:19.946Z,145
2017-10-19T07:22:19.981Z,145
2017-10-19T07:23:19.988Z,145
2017-10-19T07:24:20.015Z,150
2017-10-19T07:25:20.362Z,150
2017-10-19T07:26:20.061Z,150
2017-10-19T07:27:20.249Z,150
2017-10-19T07:28:20.095Z,155
2017-10-19T07:29:20.443Z,155
2017-10-19T07:30:20.136Z,155
2017-10-19T07:31:20.164Z,160
2017-10-19T07:32:20.189Z,160
2017-10-19T07:33:20.530Z,160
2017-10-19T07:34:20.234Z,160
2017-10-19T07:35:20.265Z,165
2017-10-19T07:36:20.270Z,165
2017-10-19T07:37:20.304Z,165
2017-10-19T07:38:20.665Z,170
2017-10-19T07:39:20.337Z,170
2017-10-19T07:40:20.359Z,170
2017-10-19T07:41:20.389Z,170
2017-10-19T07:42:20.437Z,175
2017-10-19T07:43:20.433Z,175
2017-10-19T07:44:20.530Z,175
2017-10-19T07:45:20.469Z,175
2017-10-19T07:46:20.497Z,180
2017-10-19T07:47:20.851Z,180
2017-10-19T07:48:21.224Z,180
2017-10-19T07:49:20.565Z,180
2017-10-19T07:50:20.601Z,185
2017-10-19T07:51:20.603Z,185
2017-10-19T07:52:20.632Z,185
2017-10-19T07:53:20.651Z,185
2017-10-19T07:54:20.672Z,185
2017-10-19T07:55:20.696Z,185
2017-10-19T07:56:20.721Z,185
2017-10-19T07:57:20.746Z,185
2017-10-19T07:58:20.762Z,190
2017-10-19T07:59:20.790Z,190
2017-10-19T08:00:20.805Z,190
2017-10-19T08:01:21.168Z,190
2017-10-19T08:02:20.868Z,195
2017-10-19T08:03:20.880Z,195
2017-10-19T08:04:21.227Z,195
2017-10-19T08:05:20.925Z,200
2017-10-19T08:06:20.941Z,200
2017-10-19T08:07:20.972Z,200
2017-10-19T08:08:20.990Z,200
2017-10-19T08:09:21.014Z,205
2017-10-19T08:10:21.036Z,205
2017-10-19T08:11:21.057Z,205
2017-10-19T08:12:21.399Z,210
2017-10-19T08:13:21.105Z,210
2017-10-19T08:14:21.141Z,210
2017-10-19T08:15:21.156Z,215
2017-10-19T08:16:21.176Z,215
2017-10-19T08:17:21.250Z,215
2017-10-19T08:18:21.228Z,215
2017-10-19T08:19:21.248Z,215
2017-10-19T08:20:21.606Z,220
2017-10-19T08:21:21.291Z,220
2017-10-19T08:22:21.642Z,220
2017-10-19T08:23:21.342Z,220
2017-10-19T08:24:21.359Z,225
2017-10-19T08:25:21.393Z,225
2017-10-19T08:26:21.410Z,225
2017-10-19T08:27:21.433Z,230
2017-10-19T08:28:21.462Z,230
2017-10-19T08:29:21.490Z,230
2017-10-19T08:30:21.503Z,230
2017-10-19T08:31:21.527Z,235
2017-10-19T08:32:21.609Z,235
2017-10-19T08:33:21.896Z,235
2017-10-19T08:34:21.603Z,240
2017-10-19T08:35:21.618Z,240
2017-10-19T08:36:21.653Z,240
2017-10-19T08:37:21.668Z,240
2017-10-19T08:38:21.697Z,240
2017-10-19T08:39:22.047Z,240
2017-10-19T08:40:21.741Z,245
2017-10-19T08:41:21.766Z,240
2017-10-19T08:42:21.787Z,240
2017-10-19T08:43:22.139Z,245
2017-10-19T08:44:21.851Z,245
2017-10-19T08:45:21.865Z,245
2017-10-19T08:46:21.919Z,245
2017-10-19T08:47:21.966Z,245
2017-10-19T08:48:21.939Z,250
2017-10-19T08:49:21.960Z,250
2017-10-19T08:50:21.984Z,250
2017-10-19T08:51:22.026Z,250
2017-10-19T08:52:22.051Z,255
2017-10-19T08:53:22.083Z,255
2017-10-19T08:54:22.085Z,255
2017-10-19T08:55:22.113Z,255
2017-10-19T08:56:22.132Z,255
2017-10-19T08:57:22.167Z,260
2017-10-19T08:58:22.183Z,260
2017-10-19T08:59:22.555Z,260
2017-10-19T09:00:22.237Z,260
2017-10-19T09:01:22.273Z,260
2017-10-19T09:02:22.352Z,265
2017-10-19T09:03:22.310Z,265
2017-10-19T09:04:22.343Z,265
2017-10-19T09:05:22.362Z,265
2017-10-19T09:06:22.385Z,265
2017-10-19T09:07:22.420Z,265
2017-10-19T09:08:22.436Z,270
2017-10-19T09:09:22.458Z,270
2017-10-19T09:10:22.491Z,270
2017-10-19T09:11:22.509Z,265
2017-10-19T09:12:22.860Z,265
2017-10-19T09:13:22.564Z,270
2017-10-19T09:14:22.594Z,275
2017-10-19T09:15:22.622Z,275
2017-10-19T09:16:22.644Z,270
2017-10-19T09:17:22.667Z,275
2017-10-19T09:18:22.695Z,275
2017-10-19T09:19:22.722Z,275
2017-10-19T09:20:22.939Z,275
2017-10-19T09:21:22.770Z,275
2017-10-19T09:22:22.879Z,280
2017-10-19T09:23:22.827Z,280
2017-10-19T09:24:22.851Z,280
2017-10-19T09:25:23.323Z,285
2017-10-19T09:26:23.008Z,285
2017-10-19T09:27:22.941Z,290
2017-10-19T09:28:23.273Z,285
2017-10-19T09:29:22.986Z,290
2017-10-19T09:30:23.009Z,290
2017-10-19T09:31:23.033Z,295
2017-10-19T09:32:23.055Z,290
2017-10-19T09:33:23.090Z,290
2017-10-19T09:34:23.119Z,295
2017-10-19T09:35:23.187Z,295
2017-10-19T09:36:23.161Z,300
2017-10-19T09:37:23.185Z,300
2017-10-19T09:38:23.205Z,305
2017-10-19T09:39:23.229Z,305
2017-10-19T09:40:23.593Z,305
2017-10-19T09:41:23.613Z,305
2017-10-19T09:42:23.313Z,310
2017-10-19T09:43:23.665Z,310
2017-10-19T09:44:23.377Z,310
2017-10-19T09:45:23.399Z,315
2017-10-19T09:46:23.419Z,315
2017-10-19T09:47:23.446Z,320
2017-10-19T09:48:23.478Z,320
2017-10-19T09:49:23.510Z,320
2017-10-19T09:50:23.530Z,320
2017-10-19T09:51:23.612Z,345
2017-10-19T09:52:23.931Z,750
2017-10-19T09:53:24.309Z,1185
2017-10-19T09:54:23.629Z,1245
2017-10-19T09:55:23.991Z,1250
2017-10-19T09:56:23.685Z,1275
2017-10-19T09:57:23.723Z,1290
2017-10-19T09:58:23.749Z,1315
2017-10-19T09:59:23.764Z,1345
2017-10-19T10:00:23.792Z,1270
2017-10-19T10:01:23.815Z,1175
2017-10-19T10:02:23.849Z,1210
2017-10-19T10:03:23.877Z,1320
2017-10-19T10:04:23.914Z,1320
2017-10-19T10:05:23.947Z,1345
2017-10-19T10:06:23.961Z,1360
2017-10-19T10:07:23.995Z,1390
2017-10-19T10:08:24.020Z,1465
2017-10-19T10:09:24.381Z,1470
2017-10-19T10:10:24.131Z,1490
2017-10-19T10:11:24.109Z,1460
2017-10-19T10:12:24.135Z,1555
2017-10-19T10:13:24.499Z,1555
2017-10-19T10:14:24.209Z,1510
2017-10-19T10:15:24.268Z,1545
2017-10-19T10:16:24.626Z,1525
2017-10-19T10:17:24.679Z,1525
2017-10-19T10:18:24.636Z,1570
2017-10-19T10:19:24.376Z,1550
2017-10-19T10:20:24.459Z,1565
2017-10-19T10:21:24.600Z,1565
2017-10-19T10:22:24.460Z,1565
2017-10-19T10:23:24.491Z,1545
2017-10-19T10:24:24.860Z,1555
2017-10-19T10:25:24.562Z,1420
2017-10-19T10:26:24.638Z,1420
2017-10-19T10:27:24.765Z,1540
2017-10-19T10:28:24.661Z,1620
2017-10-19T10:29:24.785Z,1640
2017-10-19T10:30:25.047Z,1690
2017-10-19T10:31:24.757Z,1745
2017-10-19T10:32:24.788Z,1775
2017-10-19T10:33:24.828Z,1630
2017-10-19T10:34:25.199Z,1560
2017-10-19T10:35:24.899Z,1460
2017-10-19T10:36:25.924Z,2190
2017-10-19T10:37:24.964Z,2235
2017-10-19T10:38:25.003Z,1360
2017-10-19T10:39:25.028Z,1275
2017-10-19T10:40:25.065Z,1250
2017-10-19T10:41:25.148Z,1140
2017-10-19T10:42:25.131Z,1055
2017-10-19T10:43:25.170Z,1010
2017-10-19T10:44:25.215Z,980
2017-10-19T10:45:25.249Z,1000
2017-10-19T10:46:25.293Z,1025
2017-10-19T10:47:25.310Z,1070
2017-10-19T10:48:25.342Z,1150
2017-10-19T10:49:25.375Z,1250
2017-10-19T10:50:25.416Z,1320
2017-10-19T10:51:25.775Z,1315
2017-10-19T10:52:25.479Z,1315
2017-10-19T10:53:25.522Z,1370
2017-10-19T10:54:25.556Z,1440
2017-10-19T10:55:25.592Z,1455
2017-10-19T10:56:25.826Z,1435
2017-10-19T10:57:25.659Z,1555
2017-10-19T10:58:25.703Z,1620
2017-10-19T10:59:25.731Z,1630
2017-10-19T11:00:26.094Z,1625
2017-10-19T11:01:25.804Z,1580
2017-10-19T11:02:25.842Z,1555
2017-10-19T11:03:25.873Z,1650
2017-10-19T11:04:25.925Z,1735
2017-10-19T11:05:25.949Z,1740
2017-10-19T11:06:25.989Z,1780
2017-10-19T11:07:26.020Z,1725
2017-10-19T11:08:26.385Z,1590
2017-10-19T11:09:26.092Z,1535
2017-10-19T11:10:26.125Z,1650
2017-10-19T11:11:26.493Z,1685
2017-10-19T11:12:26.201Z,1635
2017-10-19T11:13:26.560Z,1665
2017-10-19T11:14:26.270Z,1725
2017-10-19T11:15:26.307Z,1640
2017-10-19T11:16:26.346Z,1555
2017-10-19T11:17:26.394Z,1575
2017-10-19T11:18:26.743Z,1490
2017-10-19T11:19:26.468Z,1445
2017-10-19T11:20:26.498Z,1375
2017-10-19T11:21:26.530Z,1365
2017-10-19T11:22:26.578Z,1620
2017-10-19T11:23:26.618Z,1835
2017-10-19T11:24:26.655Z,1825
2017-10-19T11:25:26.691Z,1700
2017-10-19T11:26:26.720Z,1730
2017-10-19T11:27:26.761Z,1960
2017-10-19T11:28:26.860Z,2045
2017-10-19T11:29:26.845Z,2085
2017-10-19T11:30:26.886Z,2015
2017-10-19T11:31:26.932Z,1940
2017-10-19T11:32:26.955Z,2050
2017-10-19T11:33:26.992Z,2140
2017-10-19T11:34:27.022Z,2015
2017-10-19T11:35:27.383Z,1885
2017-10-19T11:36:27.102Z,1865
2017-10-19T11:37:27.145Z,1810
2017-10-19T11:38:27.175Z,1870
2017-10-19T11:39:27.214Z,1770
2017-10-19T11:40:27.579Z,1625
2017-10-19T11:41:27.614Z,1710
2017-10-19T11:42:27.331Z,1905
2017-10-19T11:43:27.369Z,2155
2017-10-19T11:44:27.404Z,2250
2017-10-19T11:45:27.493Z,2225
2017-10-19T11:46:27.494Z,2190
2017-10-19T11:47:27.528Z,2195
2017-10-19T11:48:27.562Z,2280
2017-10-19T11:49:27.596Z,2325
2017-10-19T11:50:27.638Z,2405
2017-10-19T11:51:27.677Z,2420
2017-10-19T11:52:27.714Z,2285
2017-10-19T11:53:28.107Z,2360
2017-10-19T11:54:28.141Z,2270
2017-10-19T11:55:27.840Z,2290
2017-10-19T11:56:27.880Z,2335
2017-10-19T11:57:27.912Z,2255
2017-10-19T11:58:27.948Z,2090
2017-10-19T11:59:27.988Z,2140
2017-10-19T12:00:28.029Z,2285
2017-10-19T12:01:28.075Z,2340
2017-10-19T12:02:28.112Z,2290
2017-10-19T12:03:28.145Z,2230
2017-10-19T12:04:28.197Z,2310
2017-10-19T12:05:28.222Z,2205
2017-10-19T12:06:28.263Z,2070
2017-10-19T12:07:28.303Z,2130
2017-10-19T12:08:28.346Z,2205
2017-10-19T12:09:28.376Z,2435
2017-10-19T12:10:28.749Z,2430
2017-10-19T12:11:28.789Z,2215
2017-10-19T12:12:28.819Z,2185
2017-10-19T12:13:28.535Z,2060
2017-10-19T12:14:28.585Z,1890
2017-10-19T12:15:28.635Z,1710
2017-10-19T12:16:28.654Z,1775
2017-10-19T12:17:28.693Z,1840
2017-10-19T12:18:28.781Z,2030
2017-10-19T12:19:29.095Z,2085
2017-10-19T12:20:28.834Z,1895
2017-10-19T12:21:28.868Z,1715
2017-10-19T12:22:28.908Z,1645
2017-10-19T12:23:28.928Z,1450
2017-10-19T12:24:28.968Z,1280
2017-10-19T12:25:29.012Z,1240
2017-10-19T12:26:29.047Z,1265
2017-10-19T12:27:29.410Z,1325
2017-10-19T12:28:29.118Z,1540
2017-10-19T12:29:29.170Z,1815
2017-10-19T12:30:29.212Z,2085
2017-10-19T12:31:29.238Z,2030
2017-10-19T12:32:29.283Z,1970
2017-10-19T12:33:29.330Z,1985
2017-10-19T12:34:30.050Z,1985
2017-10-19T12:35:29.407Z,2000
2017-10-19T12:36:29.764Z,2130
2017-10-19T12:37:29.680Z,2265
2017-10-19T12:38:29.563Z,2360
2017-10-19T12:39:29.562Z,2365
2017-10-19T12:40:30.473Z,2445
2017-10-19T12:41:29.661Z,2500
2017-10-19T12:42:30.011Z,2555
2017-10-19T12:43:29.734Z,2570
2017-10-19T12:44:29.760Z,2610
2017-10-19T12:45:30.144Z,2465
2017-10-19T12:46:30.101Z,2140
2017-10-19T12:47:29.910Z,2655
2017-10-19T12:48:29.917Z,2520
2017-10-19T12:49:30.303Z,2490
2017-10-19T12:50:30.007Z,2600
2017-10-19T12:51:30.047Z,2515
2017-10-19T12:52:30.083Z,2425
2017-10-19T12:53:30.779Z,2485
2017-10-19T12:54:30.516Z,2415
2017-10-19T12:55:30.196Z,2490
2017-10-19T12:56:30.633Z,2530
2017-10-19T12:57:30.629Z,2520
2017-10-19T12:58:30.319Z,2535
2017-10-19T12:59:30.359Z,2460
2017-10-19T13:00:30.728Z,2470
2017-10-19T13:01:30.745Z,2615
2017-10-19T13:02:30.477Z,2540
2017-10-19T13:03:30.521Z,2550
2017-10-19T13:04:30.631Z,2705
2017-10-19T13:05:30.598Z,2735
2017-10-19T13:06:30.767Z,2690
2017-10-19T13:07:30.683Z,2545
2017-10-19T13:08:30.740Z,2545
2017-10-19T13:09:30.760Z,2665
2017-10-19T13:10:30.802Z,2735
2017-10-19T13:11:30.837Z,2725
2017-10-19T13:12:30.888Z,2635
2017-10-19T13:13:30.925Z,2590
2017-10-19T13:14:30.995Z,2520
2017-10-19T13:15:31.055Z,2555
2017-10-19T13:16:31.037Z,2735
2017-10-19T13:17:31.077Z,2785
2017-10-19T13:18:31.268Z,2655
2017-10-19T13:19:31.590Z,2495
2017-10-19T13:20:31.269Z,2290
2017-10-19T13:21:31.286Z,2255
2017-10-19T13:22:31.316Z,2635
2017-10-19T13:23:31.327Z,2695
2017-10-19T13:24:31.776Z,2655
2017-10-19T13:25:31.435Z,2555
2017-10-19T13:26:31.446Z,2660
2017-10-19T13:27:31.466Z,2585
2017-10-19T13:28:31.503Z,2340
2017-10-19T13:29:31.543Z,2565
2017-10-19T13:30:31.600Z,2645
2017-10-19T13:31:32.010Z,2535
2017-10-19T13:32:32.271Z,2085
2017-10-19T13:33:31.719Z,2195
2017-10-19T13:34:31.768Z,2185
2017-10-19T13:35:31.788Z,2360
2017-10-19T13:36:32.347Z,2665
2017-10-19T13:37:31.862Z,2540
2017-10-19T13:38:31.904Z,2320
2017-10-19T13:39:32.292Z,2360
2017-10-19T13:40:32.321Z,2400
2017-10-19T13:41:32.022Z,2340
2017-10-19T13:42:32.053Z,2450
2017-10-19T13:43:32.107Z,2420
2017-10-19T13:44:32.132Z,2370
2017-10-19T13:45:32.178Z,2345
2017-10-19T13:46:32.211Z,2360
2017-10-19T13:47:32.302Z,2380
2017-10-19T13:48:32.297Z,2305
2017-10-19T13:49:32.325Z,2235
2017-10-19T13:50:32.417Z,2145
2017-10-19T13:51:32.415Z,2140
2017-10-19T13:52:32.462Z,2120
2017-10-19T13:53:32.837Z,2195
2017-10-19T13:54:32.860Z,2175
2017-10-19T13:55:32.554Z,2225
2017-10-19T13:56:32.602Z,2295
2017-10-19T13:57:32.637Z,2285
2017-10-19T13:58:32.679Z,2270
2017-10-19T13:59:32.707Z,2315
2017-10-19T14:00:32.745Z,2350
2017-10-19T14:01:32.791Z,2145
2017-10-19T14:02:32.818Z,1855
2017-10-19T14:03:32.856Z,1665